Diamond Valley, Utah
Current Conditions -  °F | °C
As of 1:35 AM on Friday 28 Nov 2014 (Local Time) from KSGU Reporting Station
Clear Clear  
Wind Chill: 37°   Ceiling: Unl
Heat Index: 37°   Visibility: 10mi
Dew Point: 16°   Wind: 3mph
Humidity: 41%   Direction: 220°SW
Pressure: 30.21"   Gusts: NA
Location:  37.1317°N, 113.795°W
Report Text: KSGU 280835Z AUTO 22003KT 10SM CLR 03/M09 A3021 RMK AO1
Loading
Personal Weather Stations






























Interactive Weather Map New forecast layout! Learn more

10-Day Weather Forecast

Advertisements
Track Severe Weather on mobile